Time;durP1;ratioP1;P1;durP2;ratioP2;P2;SDS_P1;SDS_P2;PMS_P1;PMS_P2;Temp;Humidity;BMP_temperature;BMP_pressure;BME280_temperature;BME280_humidity;BME280_pressure;Samples;Min_cycle;Max_cycle;Signal;HPM_P1;HPM_P2
2022/05/08 06:12:58;;;;;;;2.92;2.63;;;;;;;;;;5096780;23;20405;-89
2022/05/08 06:15:24;;;;;;;3.05;2.75;;;;;;;;;;4939999;29;20031;-87
2022/05/08 06:17:49;;;;;;;5.13;3.25;;;;;;;;;;4957147;28;20020;-87
2022/05/08 10:39:46;;;;;;;7.53;6.72;;;;;;;;;;4936805;29;20140;-91
2022/05/08 10:42:24;;;;;;;8.52;7.63;;;;;;;;;;4937665;29;20395;-91
2022/05/08 10:44:51;;;;;;;9.15;7.45;;;;;;;;;;4920911;29;20046;-91
2022/05/08 10:47:31;;;;;;;10.25;7.82;;;;;;;;;;4921653;29;20027;-93
2022/05/08 10:49:57;;;;;;;8.65;7.75;;;;;;;;;;4923581;29;20502;-95
2022/05/08 10:52:23;;;;;;;7.25;6.65;;;;;;;;;;4921331;29;20040;-96
2022/05/08 10:55:15;;;;;;;9.55;7.97;;;;;;;;;;4921923;29;20066;-93
2022/05/08 10:57:43;;;;;;;7.35;6.57;;;;;;;;;;4918118;29;20054;-96
2022/05/08 11:00:28;;;;;;;9.05;6.72;;;;;;;;;;4923913;29;20034;-95
2022/05/08 11:03:01;;;;;;;7.30;6.57;;;;;;;;;;4920590;29;20454;-94
2022/05/08 11:05:36;;;;;;;8.23;7.43;;;;;;;;;;4920313;29;20060;-92
2022/05/08 11:08:10;;;;;;;6.03;5.53;;;;;;;;;;4918708;29;20028;-93
2022/05/08 11:10:40;;;;;;;6.88;6.15;;;;;;;;;;4921503;29;20099;-93
2022/05/08 11:13:15;;;;;;;8.98;6.57;;;;;;;;;;4921264;29;20059;-91
2022/05/08 11:15:40;;;;;;;6.55;5.88;;;;;;;;;;4923024;29;20060;-93
2022/05/08 11:18:09;;;;;;;15.10;10.80;;;;;;;;;;4921299;29;20055;-95
2022/05/08 11:20:48;;;;;;;7.90;6.97;;;;;;;;;;4920625;29;20031;-89
2022/05/08 11:23:14;;;;;;;;;;;;;;;;;;4920753;29;20032;-95
2022/05/08 11:25:41;;;;;;;7.90;6.97;;;;;;;;;;4921168;29;19910;-93
2022/05/08 11:28:15;;;;;;;8.07;6.07;;;;;;;;;;4920954;29;20515;-93
2022/05/08 11:30:41;;;;;;;7.90;7.10;;;;;;;;;;4920314;29;20023;-95
2022/05/08 11:36:06;;;;;;;7.88;7.07;;;;;;;;;;4937706;29;20526;-94
2022/05/08 11:38:52;;;;;;;8.45;7.57;;;;;;;;;;4921165;29;20028;-96
2022/05/08 11:41:33;;;;;;;7.15;6.43;;;;;;;;;;4921161;29;20102;-94
2022/05/08 11:44:14;;;;;;;7.53;6.75;;;;;;;;;;4922153;29;20027;-95
2022/05/08 11:46:57;;;;;;;7.38;6.50;;;;;;;;;;4922936;29;20027;-96
2022/05/08 11:49:32;;;;;;;7.30;6.60;;;;;;;;;;4922179;29;20031;-96
2022/05/08 11:52:02;;;;;;;7.47;6.65;;;;;;;;;;4921273;29;20038;-95
2022/05/08 11:54:28;;;;;;;7.05;6.35;;;;;;;;;;4920669;29;20024;-95
2022/05/08 11:57:13;;;;;;;6.90;6.20;;;;;;;;;;4934623;29;20028;-93
2022/05/08 11:59:40;;;;;;;7.03;6.32;;;;;;;;;;4931685;29;20360;-92
2022/05/08 12:02:05;;;;;;;6.53;5.90;;;;;;;;;;4928837;29;20046;-93
2022/05/08 12:04:33;;;;;;;6.53;5.78;;;;;;;;;;4919655;29;20487;-92
2022/05/08 12:07:02;;;;;;;9.30;6.47;;;;;;;;;;4916869;29;20024;-93
2022/05/08 12:09:51;;;;;;;6.18;5.57;;;;;;;;;;4900468;29;20031;-92
2022/05/08 12:12:25;;;;;;;6.00;5.43;;;;;;;;;;4901152;29;20040;-90
2022/05/08 12:14:55;;;;;;;6.47;5.88;;;;;;;;;;4925005;29;20074;-92
2022/05/08 12:17:21;;;;;;;6.30;5.68;;;;;;;;;;4934158;29;20086;-93
2022/05/08 12:19:55;;;;;;;6.07;5.47;;;;;;;;;;4921730;29;20111;-92
2022/05/08 12:22:27;;;;;;;5.50;5.00;;;;;;;;;;4923010;29;20039;-92
2022/05/08 12:24:54;;;;;;;5.40;4.90;;;;;;;;;;4908786;29;20031;-91
2022/05/08 12:27:20;;;;;;;5.00;4.60;;;;;;;;;;4919738;29;20027;-91
2022/05/08 12:29:46;;;;;;;5.07;4.57;;;;;;;;;;4919669;29;20389;-92
2022/05/08 12:32:15;;;;;;;4.53;4.13;;;;;;;;;;4919682;29;20094;-91
2022/05/08 12:34:45;;;;;;;5.00;4.50;;;;;;;;;;4919367;29;20110;-91
2022/05/08 12:37:12;;;;;;;6.38;4.57;;;;;;;;;;4919538;29;20497;-91
2022/05/08 12:39:38;;;;;;;4.93;4.43;;;;;;;;;;4914630;29;20036;-91
2022/05/08 12:42:05;;;;;;;5.30;4.80;;;;;;;;;;4922631;29;20032;-91
2022/05/08 12:44:31;;;;;;;5.28;4.80;;;;;;;;;;4922964;29;20119;-92
2022/05/08 12:47:00;;;;;;;4.45;4.05;;;;;;;;;;4923305;29;20062;-91
2022/05/08 12:49:26;;;;;;;7.00;5.00;;;;;;;;;;4922906;29;20114;-91
2022/05/08 12:51:51;;;;;;;4.72;4.22;;;;;;;;;;4922730;29;20127;-91
2022/05/08 12:54:17;;;;;;;5.45;4.85;;;;;;;;;;4923721;29;20024;-92
2022/05/08 12:56:44;;;;;;;5.13;4.63;;;;;;;;;;4922845;29;20028;-92
2022/05/08 13:01:53;;;;;;;5.15;4.65;;;;;;;;;;4939955;29;20038;-92
2022/05/08 13:04:19;;;;;;;4.95;4.55;;;;;;;;;;4922418;29;20032;-92
2022/05/08 13:06:45;;;;;;;5.13;4.63;;;;;;;;;;4922601;29;20051;-92
2022/05/08 13:09:11;;;;;;;9.15;4.25;;;;;;;;;;4939637;29;20027;-91
2022/05/08 13:11:37;;;;;;;5.20;4.35;;;;;;;;;;4922430;29;20032;-92
2022/05/08 13:14:06;;;;;;;5.28;4.78;;;;;;;;;;4922273;29;20618;-91
2022/05/08 13:16:32;;;;;;;4.53;4.13;;;;;;;;;;4922160;29;20474;-92
2022/05/08 13:18:58;;;;;;;4.35;3.95;;;;;;;;;;4922513;29;20028;-91
2022/05/08 13:21:24;;;;;;;5.25;4.75;;;;;;;;;;4922171;29;20028;-91
2022/05/08 13:23:50;;;;;;;4.82;4.32;;;;;;;;;;4923471;29;20035;-92
2022/05/08 13:26:15;;;;;;;4.80;4.40;;;;;;;;;;4922660;29;20023;-91
2022/05/08 13:28:42;;;;;;;4.65;4.22;;;;;;;;;;4922535;29;20542;-91
2022/05/08 13:31:08;;;;;;;4.32;3.63;;;;;;;;;;4922683;29;20047;-91
2022/05/08 13:33:34;;;;;;;6.22;4.05;;;;;;;;;;4921623;29;20505;-92
2022/05/08 13:36:00;;;;;;;4.07;3.78;;;;;;;;;;4923407;29;20035;-89
2022/05/08 13:38:26;;;;;;;5.60;3.60;;;;;;;;;;4938819;29;20028;-91
2022/05/08 13:40:55;;;;;;;4.15;3.75;;;;;;;;;;4904661;29;20051;-92
2022/05/08 13:43:21;;;;;;;3.78;3.47;;;;;;;;;;4903056;29;20088;-87
2022/05/08 13:45:47;;;;;;;4.32;3.92;;;;;;;;;;4920289;29;20060;-94
2022/05/08 13:48:13;;;;;;;4.40;4.00;;;;;;;;;;4920652;29;20043;-92
2022/05/08 13:50:39;;;;;;;4.40;4.00;;;;;;;;;;4903149;29;20491;-92
2022/05/08 13:53:08;;;;;;;4.32;3.92;;;;;;;;;;4901444;29;20471;-91
2022/05/08 13:55:38;;;;;;;5.40;3.83;;;;;;;;;;4902275;29;20024;-91
2022/05/08 13:58:08;;;;;;;3.97;3.67;;;;;;;;;;4883530;29;20033;-88
2022/05/08 14:00:34;;;;;;;3.78;3.47;;;;;;;;;;4901290;29;20028;-87
2022/05/08 14:03:05;;;;;;;4.47;3.58;;;;;;;;;;4901053;29;20464;-88
2022/05/08 14:05:32;;;;;;;4.43;3.70;;;;;;;;;;4901667;29;20468;-95
2022/05/08 14:07:57;;;;;;;4.10;3.72;;;;;;;;;;4885429;29;20031;-89
2022/05/08 14:10:23;;;;;;;4.53;4.13;;;;;;;;;;4900423;29;20037;-94
2022/05/08 14:12:52;;;;;;;4.85;4.10;;;;;;;;;;4899860;29;20068;-95
2022/05/08 14:15:23;;;;;;;5.77;4.17;;;;;;;;;;4884827;29;20096;-95
2022/05/08 14:17:50;;;;;;;3.88;3.58;;;;;;;;;;4888852;29;20033;-93
2022/05/08 14:20:17;;;;;;;4.50;4.10;;;;;;;;;;4890405;29;20131;-93
2022/05/08 14:22:44;;;;;;;4.68;4.15;;;;;;;;;;4917036;29;20020;-96
2022/05/08 14:25:11;;;;;;;4.57;4.15;;;;;;;;;;4869663;29;20029;-90
2022/05/08 14:27:36;;;;;;;3.83;3.53;;;;;;;;;;4909569;29;20033;-88
2022/05/08 14:30:06;;;;;;;4.30;3.90;;;;;;;;;;4888456;29;20025;-90
2022/05/08 14:38:00;;;;;;;4.88;3.80;;;;;;;;;;4919701;29;20135;-93
2022/05/08 14:40:28;;;;;;;4.03;3.63;;;;;;;;;;4886369;29;20500;-90
2022/05/08 14:42:54;;;;;;;4.35;3.70;;;;;;;;;;4903563;29;20051;-95
2022/05/08 14:45:19;;;;;;;3.60;3.30;;;;;;;;;;4902624;29;20410;-94
2022/05/08 14:47:45;;;;;;;4.45;3.65;;;;;;;;;;4906086;29;20020;-92
2022/05/08 14:50:11;;;;;;;4.25;3.85;;;;;;;;;;4894678;29;20068;-95
2022/05/08 14:52:36;;;;;;;4.35;3.95;;;;;;;;;;4908373;29;20029;-93
2022/05/08 14:55:02;;;;;;;4.78;3.53;;;;;;;;;;4899965;29;20475;-90
2022/05/08 14:57:28;;;;;;;3.80;3.45;;;;;;;;;;4899410;29;20029;-91
2022/05/08 14:59:53;;;;;;;3.38;3.08;;;;;;;;;;4882926;29;20056;-93
2022/05/08 15:02:18;;;;;;;3.53;3.22;;;;;;;;;;4882568;29;20033;-89
2022/05/08 15:04:45;;;;;;;3.85;3.35;;;;;;;;;;4885853;29;20043;-95
2022/05/08 15:07:12;;;;;;;3.90;3.60;;;;;;;;;;4882891;29;20029;-90
2022/05/08 15:09:38;;;;;;;3.55;3.25;;;;;;;;;;4903094;29;20103;-91
2022/05/08 15:12:03;;;;;;;4.85;3.40;;;;;;;;;;4882270;29;20604;-88
2022/05/08 15:14:29;;;;;;;3.80;3.40;;;;;;;;;;4887217;29;20025;-94
2022/05/08 15:16:54;;;;;;;3.90;3.60;;;;;;;;;;4950119;23;20063;-93
2022/05/08 15:19:20;;;;;;;3.20;3.00;;;;;;;;;;4956490;29;20043;-88
2022/05/08 15:21:45;;;;;;;5.78;3.38;;;;;;;;;;4942083;29;20027;-87
2022/05/08 15:24:12;;;;;;;7.70;3.60;;;;;;;;;;4957363;29;20037;-93
2022/05/08 15:26:39;;;;;;;5.88;3.38;;;;;;;;;;4950174;23;20046;-94
2022/05/08 15:29:04;;;;;;;4.03;3.60;;;;;;;;;;4939885;29;20024;-95
2022/05/08 15:31:31;;;;;;;4.53;3.63;;;;;;;;;;4957212;29;20377;-89
2022/05/08 15:33:58;;;;;;;4.82;3.92;;;;;;;;;;4956230;28;20027;-88
2022/05/08 15:36:24;;;;;;;5.63;3.63;;;;;;;;;;4956358;28;20042;-87
2022/05/08 15:38:49;;;;;;;4.35;3.95;;;;;;;;;;4956435;29;20019;-92
2022/05/08 15:41:15;;;;;;;4.50;3.88;;;;;;;;;;4939883;29;20027;-94
2022/05/08 15:43:40;;;;;;;7.15;3.90;;;;;;;;;;4939794;29;20023;-93
2022/05/08 15:46:11;;;;;;;4.43;3.95;;;;;;;;;;4939732;29;20121;-91
2022/05/08 15:48:37;;;;;;;4.20;3.80;;;;;;;;;;4939475;28;20552;-92
2022/05/08 15:51:02;;;;;;;6.05;4.03;;;;;;;;;;4939498;29;20019;-91
2022/05/08 15:53:28;;;;;;;5.05;3.83;;;;;;;;;;4939479;29;20027;-91
2022/05/08 15:55:53;;;;;;;4.95;4.47;;;;;;;;;;4938632;29;20053;-92
2022/05/08 15:58:19;;;;;;;4.07;3.78;;;;;;;;;;4938075;29;20031;-91
2022/05/08 16:00:46;;;;;;;4.65;4.25;;;;;;;;;;4937224;29;20067;-90
2022/05/08 16:03:12;;;;;;;4.53;4.07;;;;;;;;;;4938345;29;20029;-90
2022/05/08 16:05:37;;;;;;;4.32;3.80;;;;;;;;;;4938531;29;20050;-90
2022/05/08 16:08:03;;;;;;;5.13;4.13;;;;;;;;;;4945236;29;20034;-87
2022/05/08 16:10:29;;;;;;;5.70;4.40;;;;;;;;;;4936164;29;20023;-88
2022/05/08 19:27:54;;;;;;;5.80;4.57;;;;;;;;;;5234538;23;20044;-90
2022/05/08 19:30:19;;;;;;;5.10;4.32;;;;;;;;;;4956474;29;20039;-90
2022/05/08 19:38:13;;;;;;;6.70;4.88;;;;;;;;;;4956378;28;20066;-89
2022/05/08 19:40:39;;;;;;;6.93;5.25;;;;;;;;;;4940641;29;20023;-90
2022/05/08 19:43:05;;;;;;;6.05;5.00;;;;;;;;;;4979846;28;20023;-89
2022/05/08 19:45:33;;;;;;;5.22;4.72;;;;;;;;;;4977444;28;20044;-88
2022/05/08 19:47:58;;;;;;;5.97;4.53;;;;;;;;;;4977654;28;20031;-88
2022/05/08 19:50:24;;;;;;;5.22;4.72;;;;;;;;;;4993916;28;20030;-89
2022/05/08 19:52:49;;;;;;;5.43;4.70;;;;;;;;;;4996909;28;20050;-91
2022/05/08 19:55:15;;;;;;;6.68;5.13;;;;;;;;;;4982518;28;20053;-88
2022/05/08 19:57:42;;;;;;;5.25;4.75;;;;;;;;;;4995974;28;20057;-87
2022/05/08 20:00:08;;;;;;;5.35;4.47;;;;;;;;;;4997876;28;20026;-89
2022/05/08 20:02:34;;;;;;;7.00;5.10;;;;;;;;;;4999416;28;20026;-91
2022/05/08 20:04:59;;;;;;;5.60;4.50;;;;;;;;;;4980785;28;20032;-88
2022/05/08 20:07:26;;;;;;;6.13;5.53;;;;;;;;;;5006198;28;20054;-96
2022/05/08 20:09:52;;;;;;;5.28;4.78;;;;;;;;;;4999553;28;20025;-91
2022/05/08 20:12:18;;;;;;;6.28;4.68;;;;;;;;;;4986846;28;20010;-94
2022/05/08 20:14:44;;;;;;;5.47;4.97;;;;;;;;;;4980110;28;20122;-94
2022/05/08 20:17:10;;;;;;;5.43;4.85;;;;;;;;;;4983984;28;20062;-91
2022/05/08 20:19:36;;;;;;;5.30;4.68;;;;;;;;;;4984907;28;20045;-89
2022/05/08 20:22:02;;;;;;;5.82;4.70;;;;;;;;;;4999468;28;20082;-90
2022/05/08 20:24:35;;;;;;;5.43;4.93;;;;;;;;;;4977667;28;20037;-88
2022/05/08 20:27:02;;;;;;;7.00;4.45;;;;;;;;;;4979813;28;20031;-91
2022/05/08 20:29:28;;;;;;;9.25;4.90;;;;;;;;;;4966489;28;20057;-95
2022/05/08 20:31:54;;;;;;;4.72;4.28;;;;;;;;;;4982511;28;20026;-95
2022/05/08 20:34:24;;;;;;;5.15;4.35;;;;;;;;;;4966236;28;20042;-92
2022/05/08 20:36:51;;;;;;;4.95;4.55;;;;;;;;;;4963929;28;20030;-96
2022/05/08 20:39:18;;;;;;;4.97;4.30;;;;;;;;;;4962579;28;20027;-93
2022/05/08 20:41:43;;;;;;;7.53;4.57;;;;;;;;;;4959814;28;20050;-95
2022/05/08 20:44:09;;;;;;;4.70;4.22;;;;;;;;;;4960629;28;20023;-95
2022/05/08 20:46:36;;;;;;;8.00;5.22;;;;;;;;;;4962753;28;20030;-94
2022/05/08 20:49:04;;;;;;;6.07;4.95;;;;;;;;;;4958870;28;20470;-94
2022/05/08 20:51:32;;;;;;;5.30;4.80;;;;;;;;;;4958287;28;20037;-95
2022/05/08 20:54:00;;;;;;;5.75;4.50;;;;;;;;;;4959001;28;20042;-95
2022/05/08 20:56:26;;;;;;;5.50;5.00;;;;;;;;;;4958307;28;20142;-95
2022/05/08 20:58:52;;;;;;;4.68;4.05;;;;;;;;;;4958641;28;20030;-94
2022/05/08 21:01:17;;;;;;;5.43;4.20;;;;;;;;;;4959504;28;20058;-92
2022/05/08 21:03:42;;;;;;;9.70;4.82;;;;;;;;;;4961652;28;20052;-92
2022/05/08 21:08:52;;;;;;;6.60;5.15;;;;;;;;;;4979445;28;20038;-95
2022/05/08 21:11:17;;;;;;;5.55;4.90;;;;;;;;;;4961663;28;20125;-96
2022/05/08 21:13:42;;;;;;;5.03;4.22;;;;;;;;;;4961414;28;20039;-93
2022/05/08 21:16:08;;;;;;;5.88;4.88;;;;;;;;;;4964978;28;20031;-96
2022/05/08 21:18:34;;;;;;;6.22;5.00;;;;;;;;;;4962533;28;20534;-93
2022/05/08 21:21:00;;;;;;;5.03;4.53;;;;;;;;;;4961623;28;20524;-95
2022/05/08 21:23:28;;;;;;;5.10;4.60;;;;;;;;;;4962117;28;20480;-93
2022/05/08 21:25:53;;;;;;;5.53;4.57;;;;;;;;;;4964260;28;20022;-94
2022/05/08 21:28:19;;;;;;;5.55;5.05;;;;;;;;;;4979475;28;20129;-94
2022/05/08 21:30:44;;;;;;;5.43;4.93;;;;;;;;;;4961933;28;20074;-95
2022/05/08 21:33:10;;;;;;;5.95;5.30;;;;;;;;;;4962120;28;20038;-95
2022/05/08 21:35:35;;;;;;;5.60;5.10;;;;;;;;;;4962074;28;20035;-94
2022/05/08 21:38:01;;;;;;;5.55;5.00;;;;;;;;;;4961643;28;20049;-95
2022/05/08 21:40:26;;;;;;;5.13;4.50;;;;;;;;;;4960965;28;20038;-93
2022/05/08 21:42:52;;;;;;;6.78;5.13;;;;;;;;;;4960592;28;20081;-92
2022/05/08 21:45:17;;;;;;;6.93;4.68;;;;;;;;;;4968319;28;20031;-92
2022/05/08 21:47:43;;;;;;;6.63;4.53;;;;;;;;;;4962903;28;20030;-93
2022/05/08 21:50:09;;;;;;;5.18;4.72;;;;;;;;;;4961381;28;20524;-93
2022/05/08 21:52:35;;;;;;;7.97;5.55;;;;;;;;;;4962546;28;20031;-90
2022/05/08 21:55:00;;;;;;;5.00;4.50;;;;;;;;;;4978210;28;20026;-92
2022/05/08 21:57:26;;;;;;;6.78;5.13;;;;;;;;;;4960820;28;20073;-93
2022/05/08 21:59:51;;;;;;;5.43;4.93;;;;;;;;;;4960569;28;20493;-91
